ZBAAZSQD

Guest
Details From ZBAA - CAPITAL INTL
To ZSQD - LIUTING
Flight Number -
Tags decoded
Created
Modified
Stats Distance 291 nm / 538 km
Max Altitude 0 ft / 0 m
Waypoints 2
Social Downloads 0
Likes 0
Share VATSIM

Download

Looking for another format? Having issues loading an existing format? Contact us
Advertisement - Login to hide

Notes

Requested: ZBAA TJK DYN WFG ZSQD Unmatched points: TJK DYN WFG

Route

ZBAA ZSQD

ID Type Via Altitude Latitude Longitude Leg Dist Tot Dist Heading (true) Name
O ZBAA APT - 0 ft / 0 m 40.08012˚ 116.58456˚ - 0 nm - CAPITAL INTL
O ZSQD APT - 0 ft / 0 m 36.26611˚ 120.37443˚ 290 nm 290 nm 141° / 143° LIUTING

Altitude Profile

Advertisement - Login to hide

Weather


0- 5 10 15 20 25 30 35+ Temperature / ° C

Clouds and Precipitation
Forecast for 2017-12-17 06:00 UTC. Updated 2 hours ago

Ground ~20,000 ft ~40,000 ft Winds

ZBAA

Details ICAO ZBAA (PEK)
Name CAPITAL INTL
Region China
Timezone Asia/Shanghai (UTC+8.0)
Stats Elevation 116 ft / 35 m (AMSL)
Location 40.080118° 116.584563°
Runways 2
Magnetic Variation 6.953° W

METAR

ZBAA 170430Z 23003MPS 190V350 CAVOK 04/M16 Q1029 NOSIG

Decode

TAF

Not found

Departure Runways

ID Width Length Bearing (true) Bearing (mag) Surface Threshold Offset Overrun Length
18L 197 ft / 60 m 12,436 ft / 3,790 m 173.12° 180.07° Asphalt 0 ft / 0 m 197 ft / 60 m
18R 164 ft / 50 m 10,506 ft / 3,202 m 174.11° 181.06° Asphalt 0 ft / 0 m 197 ft / 60 m
36L 164 ft / 50 m 10,506 ft / 3,202 m 354.11° 1.06° Asphalt 0 ft / 0 m 197 ft / 60 m
36R 197 ft / 60 m 12,436 ft / 3,790 m 353.12° 0.07° Asphalt 0 ft / 0 m 197 ft / 60 m

ZSQD

Details ICAO ZSQD (TAO)
Name LIUTING
Region China
Timezone Asia/Shanghai (UTC+8.0)
Stats Elevation 33 ft / 10 m (AMSL)
Location 36.266107° 120.374435°
Runways 1
Magnetic Variation 6.996° W

METAR

ZSQD 170400Z 33005MPS 290V350 CAVOK 04/M19 Q1033 NOSIG

Decode

TAF

Not found

Destination Runways

ID Width Length Bearing (true) Bearing (mag) Surface Threshold Offset Overrun Length
17 148 ft / 45 m 11,211 ft / 3,417 m 165.61° 172.61° Concrete 0 ft / 0 m 200 ft / 61 m
35 148 ft / 45 m 11,211 ft / 3,417 m 345.61° 352.61° Concrete 0 ft / 0 m 200 ft / 61 m

Approach Navaids

Runway Type Ident Frequency Range Bearing (true) Bearing (mag) Slope Elevation
17 Localiser INX 110.70 MHz 18 nm / 33 km 165.54° 172.54° - 33 ft / 10 m (AMSL)
17 Glidescope INX 110.70 MHz 10 nm / 19 km 165.61° 172.61° 3.00° 33 ft / 10 m (AMSL)
17 DME INX 110.70 MHz 18 nm / 33 km - - - 33 ft / 10 m (AMSL)
35 Localiser IPP 111.70 MHz 18 nm / 33 km 345.54° 352.53° - 33 ft / 10 m (AMSL)
35 Glidescope IPP 111.70 MHz 10 nm / 19 km 345.61° 352.61° 3.00° 33 ft / 10 m (AMSL)

Popular Alternatives